createdAt,value
2018-06-15T00:00:37.423Z,6.30
2018-06-15T00:03:06.661Z,5.40
2018-06-15T00:05:35.352Z,5.70
2018-06-15T00:08:03.894Z,5.80
2018-06-15T00:10:32.440Z,6.50
2018-06-15T00:13:01.518Z,6.27
2018-06-15T00:15:30.112Z,5.60
2018-06-15T00:17:58.888Z,6.10
2018-06-15T00:20:27.337Z,5.57
2018-06-15T00:22:56.408Z,5.33
2018-06-15T00:25:25.663Z,6.60
2018-06-15T00:27:54.147Z,5.77
2018-06-15T00:30:22.915Z,6.43
2018-06-15T00:32:51.357Z,6.13
2018-06-15T00:35:20.083Z,6.20
2018-06-15T00:37:48.775Z,5.97
2018-06-15T00:40:17.559Z,5.70
2018-06-15T00:42:46.280Z,5.57
2018-06-15T00:45:14.878Z,6.50
2018-06-15T00:47:43.589Z,6.57
2018-06-15T00:50:12.027Z,5.97
2018-06-15T00:52:40.644Z,6.37
2018-06-15T00:55:09.284Z,6.10
2018-06-15T00:57:48.254Z,6.13
2018-06-15T01:00:17.488Z,6.20
2018-06-15T01:02:46.259Z,6.10
2018-06-15T01:05:14.939Z,6.50
2018-06-15T01:07:44.258Z,6.70
2018-06-15T01:10:13.060Z,6.07
2018-06-15T01:12:41.785Z,6.33
2018-06-15T01:15:11.110Z,6.80
2018-06-15T01:17:39.851Z,6.70
2018-06-15T01:20:08.435Z,6.50
2018-06-15T01:22:36.952Z,5.63
2018-06-15T01:25:05.536Z,6.47
2018-06-15T01:27:34.097Z,6.77
2018-06-15T01:30:02.670Z,6.43
2018-06-15T01:32:31.483Z,6.17
2018-06-15T01:35:00.072Z,6.03
2018-06-15T01:37:28.612Z,5.93
2018-06-15T01:39:57.206Z,5.57
2018-06-15T01:42:26.818Z,6.10
2018-06-15T01:44:55.300Z,6.10
2018-06-15T01:47:24.738Z,5.97
2018-06-15T01:49:53.889Z,6.20
2018-06-15T01:52:22.423Z,5.73
2018-06-15T01:54:50.934Z,5.97
2018-06-15T01:57:19.527Z,7.10
2018-06-15T01:59:49.176Z,6.77
2018-06-15T02:02:17.607Z,6.73
2018-06-15T02:04:46.116Z,5.87
2018-06-15T02:07:14.718Z,6.80
2018-06-15T02:09:43.308Z,5.93
2018-06-15T02:12:11.809Z,6.47
2018-06-15T02:14:40.303Z,6.33
2018-06-15T02:17:08.728Z,6.73
2018-06-15T02:19:37.285Z,7.17
2018-06-15T02:22:05.684Z,6.67
2018-06-15T02:24:34.250Z,6.23
2018-06-15T02:27:02.680Z,6.57
2018-06-15T02:29:31.335Z,5.87
2018-06-15T02:31:59.936Z,6.30
2018-06-15T02:34:28.544Z,5.93
2018-06-15T02:36:56.988Z,6.87
2018-06-15T02:39:25.520Z,6.03
2018-06-15T02:41:54.192Z,6.63
2018-06-15T02:44:22.379Z,6.30
2018-06-15T02:46:51.003Z,7.03
2018-06-15T02:49:19.991Z,7.70
2018-06-15T02:51:48.510Z,6.17
2018-06-15T02:54:17.263Z,6.30
2018-06-15T02:56:45.793Z,6.67
2018-06-15T02:59:14.303Z,5.73
2018-06-15T03:01:42.703Z,6.00
2018-06-15T03:04:11.279Z,6.23
2018-06-15T03:06:39.951Z,6.90
2018-06-15T03:09:08.436Z,6.30
2018-06-15T03:11:36.968Z,6.90
2018-06-15T03:14:06.132Z,6.53
2018-06-15T03:16:34.693Z,6.30
2018-06-15T03:19:03.420Z,5.80
2018-06-15T03:21:32.049Z,6.43
2018-06-15T03:24:00.582Z,6.90
2018-06-15T03:26:29.163Z,6.63
2018-06-15T03:28:57.844Z,7.27
2018-06-15T03:31:26.367Z,6.20
2018-06-15T03:33:55.157Z,6.70
2018-06-15T03:36:23.853Z,6.20
2018-06-15T03:38:52.472Z,5.97
2018-06-15T03:41:21.882Z,6.27
2018-06-15T03:43:50.309Z,5.90
2018-06-15T03:46:18.782Z,6.83
2018-06-15T03:48:47.197Z,6.63
2018-06-15T03:51:15.774Z,6.57
2018-06-15T03:53:45.194Z,6.17
2018-06-15T03:56:13.669Z,6.50
2018-06-15T03:58:42.206Z,6.90
2018-06-15T04:01:10.748Z,6.57
2018-06-15T04:03:39.247Z,7.03
2018-06-15T04:06:07.983Z,6.70
2018-06-15T04:08:36.483Z,6.43
2018-06-15T04:11:04.873Z,6.63
2018-06-15T04:13:34.216Z,6.73
2018-06-15T04:16:02.773Z,7.20
2018-06-15T04:18:31.382Z,6.77
2018-06-15T04:20:59.855Z,6.47
2018-06-15T04:23:28.879Z,7.10
2018-06-15T04:25:57.543Z,6.60
2018-06-15T04:28:26.284Z,6.80
2018-06-15T04:30:54.791Z,7.00
2018-06-15T04:33:23.419Z,6.77
2018-06-15T04:35:52.096Z,7.63
2018-06-15T04:38:20.593Z,7.83
2018-06-15T04:40:49.164Z,7.23
2018-06-15T04:43:17.912Z,6.77
2018-06-15T04:45:46.724Z,7.03
2018-06-15T04:48:15.305Z,7.63
2018-06-15T04:50:43.802Z,7.67
2018-06-15T04:53:12.371Z,7.20
2018-06-15T04:55:40.800Z,7.50
2018-06-15T04:58:09.195Z,6.80
2018-06-15T05:00:37.736Z,6.77
2018-06-15T05:03:06.170Z,6.93
2018-06-15T05:05:34.966Z,6.87
2018-06-15T05:08:06.310Z,7.20
2018-06-15T05:10:38.473Z,7.40
2018-06-15T05:13:06.954Z,7.00
2018-06-15T05:15:35.464Z,6.53
2018-06-15T05:18:04.144Z,6.60
2018-06-15T05:20:32.694Z,6.83
2018-06-15T05:23:01.400Z,6.83
2018-06-15T05:25:30.189Z,6.83
2018-06-15T05:27:58.847Z,7.00
2018-06-15T05:30:27.478Z,6.90
2018-06-15T05:32:56.112Z,6.90
2018-06-15T05:35:24.544Z,7.20
2018-06-15T05:37:53.000Z,6.67
2018-06-15T05:40:21.399Z,6.97
2018-06-15T05:42:50.589Z,6.63
2018-06-15T05:45:19.074Z,7.17
2018-06-15T05:47:47.884Z,6.50
2018-06-15T05:50:16.317Z,6.60
2018-06-15T05:52:45.371Z,6.43
2018-06-15T05:55:13.835Z,7.43
2018-06-15T05:57:42.260Z,7.23
2018-06-15T06:00:10.788Z,6.60
2018-06-15T06:02:39.247Z,6.93
2018-06-15T06:05:08.553Z,6.60
2018-06-15T06:07:36.971Z,6.87
2018-06-15T06:10:06.015Z,7.47
2018-06-15T06:12:34.487Z,6.53
2018-06-15T06:15:03.151Z,6.77
2018-06-15T06:17:31.700Z,6.63
2018-06-15T06:20:00.354Z,7.10
2018-06-15T06:22:28.974Z,7.33
2018-06-15T06:24:58.429Z,8.00
2018-06-15T06:27:26.522Z,7.47
2018-06-15T06:29:54.971Z,8.20
2018-06-15T06:32:23.536Z,7.77
2018-06-15T06:34:52.225Z,8.30
2018-06-15T06:37:20.760Z,7.57
2018-06-15T06:39:49.377Z,7.60
2018-06-15T06:42:17.801Z,7.33
2018-06-15T06:44:46.333Z,7.47
2018-06-15T06:47:14.740Z,7.77
2018-06-15T06:49:43.177Z,7.50
2018-06-15T06:52:11.611Z,6.47
2018-06-15T06:54:40.078Z,7.90
2018-06-15T06:57:08.696Z,6.97
2018-06-15T06:59:37.690Z,7.10
2018-06-15T07:02:06.296Z,7.27
2018-06-15T07:04:34.864Z,7.77
2018-06-15T07:07:03.382Z,7.37
2018-06-15T07:09:31.900Z,7.33
2018-06-15T07:12:00.479Z,7.10
2018-06-15T07:14:28.943Z,7.13
2018-06-15T07:16:57.634Z,7.83
2018-06-15T07:19:26.175Z,6.83
2018-06-15T07:21:54.783Z,8.03
2018-06-15T07:24:24.078Z,7.50
2018-06-15T07:26:52.731Z,6.57
2018-06-15T07:29:21.266Z,6.57
2018-06-15T07:31:49.814Z,6.80
2018-06-15T07:34:18.273Z,6.30
2018-06-15T07:36:47.312Z,6.47
2018-06-15T07:39:15.943Z,5.97
2018-06-15T07:41:44.592Z,7.10
2018-06-15T07:44:13.644Z,6.67
2018-06-15T07:46:42.272Z,6.57
2018-06-15T07:49:11.399Z,6.53
2018-06-15T07:51:40.603Z,6.37
2018-06-15T07:54:09.579Z,5.70
2018-06-15T07:56:38.127Z,6.20
2018-06-15T07:59:06.871Z,5.63
2018-06-15T08:01:35.561Z,5.00
2018-06-15T08:04:06.732Z,5.73
2018-06-15T08:06:35.358Z,6.07
2018-06-15T08:09:05.582Z,5.07
2018-06-15T08:11:34.198Z,5.13
2018-06-15T08:14:02.777Z,5.17
2018-06-15T08:16:31.752Z,5.17
2018-06-15T08:19:00.507Z,5.07
2018-06-15T08:21:29.742Z,5.30
2018-06-15T08:23:58.416Z,5.17
2018-06-15T08:26:27.080Z,4.90
2018-06-15T08:28:55.669Z,5.53
2018-06-15T08:31:24.810Z,5.17
2018-06-15T08:33:53.537Z,5.80
2018-06-15T08:36:22.047Z,4.60
2018-06-15T08:38:50.455Z,5.13
2018-06-15T08:41:18.996Z,5.43
2018-06-15T08:43:47.516Z,4.57
2018-06-15T08:46:16.067Z,5.30
2018-06-15T08:48:44.540Z,5.37
2018-06-15T08:51:13.249Z,5.47
2018-06-15T08:53:42.009Z,4.40
2018-06-15T08:56:10.656Z,4.77
2018-06-15T08:58:39.218Z,4.37
2018-06-15T09:01:07.712Z,4.63
2018-06-15T09:03:36.321Z,4.27
2018-06-15T09:06:05.659Z,4.97
2018-06-15T09:08:34.066Z,4.70
2018-06-15T09:11:02.547Z,3.97
2018-06-15T09:13:31.196Z,4.30
2018-06-15T09:16:00.337Z,4.30
2018-06-15T09:18:28.870Z,4.30
2018-06-15T09:20:57.759Z,4.23
2018-06-15T09:23:26.427Z,4.87
2018-06-15T09:25:55.017Z,4.87
2018-06-15T09:28:23.802Z,4.60
2018-06-15T09:30:52.790Z,4.50
2018-06-15T09:33:22.107Z,4.63
2018-06-15T09:35:51.512Z,4.40
2018-06-15T09:38:20.067Z,4.43
2018-06-15T09:40:48.505Z,3.83
2018-06-15T09:43:17.020Z,4.73
2018-06-15T09:45:46.333Z,4.70
2018-06-15T09:48:15.000Z,4.20
2018-06-15T09:50:43.444Z,4.67
2018-06-15T09:53:12.066Z,4.03
2018-06-15T09:55:40.516Z,4.60
2018-06-15T09:58:09.125Z,4.30
2018-06-15T10:00:43.013Z,4.60
2018-06-15T10:03:11.466Z,4.13
2018-06-15T10:05:39.928Z,3.93
2018-06-15T10:08:08.351Z,4.23
2018-06-15T10:10:36.961Z,4.63
2018-06-15T10:13:05.541Z,3.93
2018-06-15T10:15:34.095Z,4.70
2018-06-15T10:18:02.618Z,3.90
2018-06-15T10:20:31.051Z,4.10
2018-06-15T10:22:59.639Z,4.33
2018-06-15T10:25:28.353Z,4.30
2018-06-15T10:27:56.791Z,3.87
2018-06-15T10:30:25.372Z,4.30
2018-06-15T10:32:54.760Z,4.10
2018-06-15T10:35:23.308Z,4.30
2018-06-15T10:37:51.768Z,3.87
2018-06-15T10:40:20.409Z,4.27
2018-06-15T10:42:48.908Z,3.73
2018-06-15T10:45:17.501Z,4.17
2018-06-15T10:47:46.013Z,4.03
2018-06-15T10:50:14.830Z,3.90
2018-06-15T10:52:43.285Z,4.23
2018-06-15T10:55:11.845Z,4.57
2018-06-15T10:57:41.126Z,4.23
2018-06-15T11:00:09.687Z,4.87
2018-06-15T11:02:38.293Z,4.33
2018-06-15T11:05:07.299Z,4.50
2018-06-15T11:07:35.959Z,4.70
2018-06-15T11:10:04.761Z,4.80
2018-06-15T11:12:34.452Z,4.53
2018-06-15T11:15:04.005Z,4.60
2018-06-15T11:17:32.870Z,5.13
2018-06-15T11:20:01.641Z,4.47
2018-06-15T11:22:30.131Z,4.17
2018-06-15T11:24:59.039Z,4.13
2018-06-15T11:27:27.634Z,4.07
2018-06-15T11:29:56.136Z,4.47
2018-06-15T11:32:24.653Z,5.03
2018-06-15T11:34:53.255Z,4.33
2018-06-15T11:37:21.910Z,5.00
2018-06-15T11:39:50.641Z,5.13
2018-06-15T11:42:19.255Z,4.43
2018-06-15T11:44:47.787Z,4.50
2018-06-15T11:47:16.568Z,5.30
2018-06-15T11:49:45.067Z,4.83
2018-06-15T11:52:14.394Z,4.73
2018-06-15T11:54:42.556Z,4.80
2018-06-15T11:57:11.329Z,5.00
2018-06-15T11:59:39.802Z,4.97
2018-06-15T12:02:09.347Z,4.70
2018-06-15T12:04:38.103Z,4.40
2018-06-15T12:07:06.607Z,4.40
2018-06-15T12:09:35.126Z,4.60
2018-06-15T12:12:04.256Z,4.53
2018-06-15T12:14:32.879Z,4.70
2018-06-15T12:17:01.629Z,4.80
2018-06-15T12:19:30.090Z,4.67
2018-06-15T12:21:59.525Z,4.33
2018-06-15T12:24:28.273Z,4.07
2018-06-15T12:26:56.784Z,4.30
2018-06-15T12:29:25.532Z,4.20
2018-06-15T12:31:54.057Z,4.73
2018-06-15T12:34:22.550Z,4.20
2018-06-15T12:36:51.179Z,4.20
2018-06-15T12:39:19.796Z,3.97
2018-06-15T12:41:48.337Z,4.10
2018-06-15T12:44:16.793Z,4.30
2018-06-15T12:46:45.392Z,4.37
2018-06-15T12:49:13.835Z,4.10
2018-06-15T12:51:42.530Z,4.00
2018-06-15T12:54:11.108Z,4.30
2018-06-15T12:56:40.006Z,4.53
2018-06-15T12:59:08.792Z,4.87
2018-06-15T13:01:37.895Z,4.47
2018-06-15T13:04:06.930Z,4.60
2018-06-15T13:06:35.412Z,4.13
2018-06-15T13:09:05.536Z,4.23
2018-06-15T13:11:34.315Z,4.50
2018-06-15T13:14:02.911Z,4.37
2018-06-15T13:16:31.849Z,4.13
2018-06-15T13:19:00.463Z,4.30
2018-06-15T13:21:29.136Z,4.50
2018-06-15T13:23:57.856Z,4.03
2018-06-15T13:26:26.488Z,4.30
2018-06-15T13:28:54.979Z,3.60
2018-06-15T13:31:23.452Z,4.03
2018-06-15T13:33:52.011Z,4.70
2018-06-15T13:36:21.137Z,4.90
2018-06-15T13:38:50.263Z,4.73
2018-06-15T13:41:19.612Z,4.93
2018-06-15T13:43:48.882Z,4.80
2018-06-15T13:46:17.611Z,5.47
2018-06-15T13:48:46.209Z,5.27
2018-06-15T13:51:14.962Z,5.13
2018-06-15T13:53:43.791Z,5.23
2018-06-15T13:56:12.591Z,5.43
2018-06-15T13:58:41.279Z,4.80
2018-06-15T14:01:10.631Z,4.40
2018-06-15T14:03:39.216Z,4.27
2018-06-15T14:06:07.740Z,4.40
2018-06-15T14:08:36.297Z,4.60
2018-06-15T14:11:04.806Z,4.90
2018-06-15T14:13:33.527Z,4.50
2018-06-15T14:16:02.426Z,3.87
2018-06-15T14:18:30.988Z,4.23
2018-06-15T14:20:59.892Z,4.70
2018-06-15T14:23:28.517Z,5.07
2018-06-15T14:25:56.978Z,5.20
2018-06-15T14:28:25.736Z,4.80
2018-06-15T14:30:54.683Z,4.70
2018-06-15T14:33:23.280Z,4.30
2018-06-15T14:35:51.820Z,6.53
2018-06-15T14:38:21.015Z,5.30
2018-06-15T14:40:50.021Z,4.50
2018-06-15T14:43:18.629Z,4.50
2018-06-15T14:45:47.188Z,4.57
2018-06-15T14:48:16.027Z,4.47
2018-06-15T14:50:44.605Z,6.40
2018-06-15T14:53:13.060Z,4.50
2018-06-15T14:55:41.557Z,4.53
2018-06-15T14:58:10.389Z,4.10
2018-06-15T15:00:39.090Z,3.93
2018-06-15T15:03:07.717Z,4.40
2018-06-15T15:05:36.185Z,4.10
2018-06-15T15:08:05.048Z,3.80
2018-06-15T15:10:33.894Z,3.75
2018-06-15T15:13:02.998Z,4.65
2018-06-15T15:15:31.487Z,4.45
2018-06-15T15:18:00.121Z,4.30
2018-06-15T15:20:29.002Z,4.87
2018-06-15T15:22:57.558Z,4.40
2018-06-15T15:25:26.487Z,4.40
2018-06-15T15:27:55.213Z,4.60
2018-06-15T15:30:23.703Z,4.53
2018-06-15T15:32:52.279Z,5.07
2018-06-15T15:35:20.867Z,4.93
2018-06-15T15:37:50.100Z,4.70
2018-06-15T15:40:19.568Z,5.57
2018-06-15T15:42:48.199Z,4.63
2018-06-15T15:45:16.724Z,10.27
2018-06-15T15:47:45.389Z,4.40
2018-06-15T15:50:14.016Z,4.50
2018-06-15T15:52:42.590Z,6.87
2018-06-15T15:55:11.108Z,8.67
2018-06-15T15:57:39.728Z,5.37
2018-06-15T16:00:08.329Z,4.03
2018-06-15T16:02:36.899Z,4.20
2018-06-15T16:05:05.484Z,4.50
2018-06-15T16:07:34.083Z,4.63
2018-06-15T16:10:02.685Z,3.87
2018-06-15T16:12:31.276Z,4.40
2018-06-15T16:14:59.755Z,4.40
2018-06-15T16:17:29.156Z,4.40
2018-06-15T16:19:57.950Z,4.80
2018-06-15T16:22:26.521Z,4.60
2018-06-15T16:24:55.078Z,10.47
2018-06-15T16:27:23.656Z,9.00
2018-06-15T16:29:52.323Z,4.50
2018-06-15T16:32:20.917Z,4.20
2018-06-15T16:34:49.600Z,3.87
2018-06-15T16:37:18.320Z,4.40
2018-06-15T16:39:47.427Z,5.13
2018-06-15T16:42:15.980Z,5.00
2018-06-15T16:44:44.534Z,4.53
2018-06-15T16:47:13.292Z,4.00
2018-06-15T16:49:42.047Z,3.97
2018-06-15T16:52:10.637Z,3.97
2018-06-15T16:54:39.154Z,3.33
2018-06-15T16:57:08.183Z,3.70
2018-06-15T16:59:36.383Z,3.60
2018-06-15T17:02:04.959Z,3.53
2018-06-15T17:04:33.637Z,3.80
2018-06-15T17:07:02.148Z,3.87
2018-06-15T17:09:30.799Z,3.70
2018-06-15T17:11:59.176Z,4.30
2018-06-15T17:14:27.793Z,4.17
2018-06-15T17:16:56.277Z,4.13
2018-06-15T17:19:24.840Z,4.40
2018-06-15T17:21:53.528Z,3.80
2018-06-15T17:24:22.115Z,4.00
2018-06-15T17:26:50.966Z,3.83
2018-06-15T17:29:19.665Z,4.00
2018-06-15T17:31:48.255Z,4.10
2018-06-15T17:34:16.715Z,4.03
2018-06-15T17:36:45.765Z,3.80
2018-06-15T17:39:14.555Z,3.83
2018-06-15T17:41:44.674Z,4.27
2018-06-15T17:44:13.318Z,4.10
2018-06-15T17:46:41.736Z,4.00
2018-06-15T17:49:10.233Z,3.77
2018-06-15T17:51:39.319Z,4.30
2018-06-15T17:54:08.123Z,4.23
2018-06-15T17:56:36.827Z,3.73
2018-06-15T17:59:05.681Z,4.13
2018-06-15T18:01:34.147Z,3.57
2018-06-15T18:04:02.720Z,3.73
2018-06-15T18:06:31.263Z,4.40
2018-06-15T18:08:59.960Z,4.17
2018-06-15T18:11:28.416Z,4.77
2018-06-15T18:13:56.948Z,4.53
2018-06-15T18:16:25.765Z,4.60
2018-06-15T18:18:54.226Z,4.33
2018-06-15T18:21:22.728Z,4.83
2018-06-15T18:23:51.379Z,4.70
2018-06-15T18:26:19.995Z,4.70
2018-06-15T18:28:48.157Z,4.43
2018-06-15T18:31:16.694Z,4.80
2018-06-15T18:33:45.248Z,4.87
2018-06-15T18:36:13.704Z,5.10
2018-06-15T18:38:42.485Z,5.17
2018-06-15T18:41:11.081Z,5.30
2018-06-15T18:43:39.579Z,5.40
2018-06-15T18:46:08.333Z,5.40
2018-06-15T18:48:36.966Z,5.20
2018-06-15T18:51:05.569Z,5.63
2018-06-15T18:53:34.203Z,5.33
2018-06-15T18:56:02.800Z,6.17
2018-06-15T18:58:31.274Z,5.20
2018-06-15T19:00:59.924Z,5.80
2018-06-15T19:03:28.409Z,6.17
2018-06-15T19:05:56.945Z,6.07
2018-06-15T19:08:25.583Z,5.97
2018-06-15T19:10:54.215Z,5.73
2018-06-15T19:13:22.723Z,5.97
2018-06-15T19:15:51.324Z,6.00
2018-06-15T19:18:20.518Z,6.23
2018-06-15T19:20:49.371Z,6.07
2018-06-15T19:23:17.978Z,6.13
2018-06-15T19:25:46.753Z,6.53
2018-06-15T19:28:15.300Z,5.80
2018-06-15T19:30:43.866Z,6.80
2018-06-15T19:33:12.690Z,6.73
2018-06-15T19:35:41.393Z,6.67
2018-06-15T19:38:09.891Z,7.10
2018-06-15T19:40:38.499Z,7.10
2018-06-15T19:43:06.685Z,7.07
2018-06-15T19:45:35.189Z,7.47
2018-06-15T19:48:03.794Z,7.33
2018-06-15T19:50:32.318Z,7.83
2018-06-15T19:53:00.879Z,9.63
2018-06-15T19:55:29.381Z,9.73
2018-06-15T19:57:57.599Z,8.90
2018-06-15T20:00:26.236Z,7.90
2018-06-15T20:02:54.920Z,7.70
2018-06-15T20:05:23.601Z,8.27
2018-06-15T20:07:52.146Z,8.80
2018-06-15T20:10:20.851Z,8.87
2018-06-15T20:12:49.566Z,8.50
2018-06-15T20:15:18.155Z,8.20
2018-06-15T20:17:46.909Z,8.17
2018-06-15T20:20:15.466Z,8.10
2018-06-15T20:22:44.293Z,7.47
2018-06-15T20:25:12.815Z,7.53
2018-06-15T20:27:41.409Z,7.80
2018-06-15T20:30:09.933Z,7.80
2018-06-15T20:32:38.439Z,7.93
2018-06-15T20:35:07.114Z,7.40
2018-06-15T20:37:35.662Z,7.97
2018-06-15T20:40:04.329Z,7.30
2018-06-15T20:42:33.015Z,8.23
2018-06-15T20:45:01.597Z,7.97
2018-06-15T20:47:30.177Z,8.93
2018-06-15T20:49:58.674Z,8.30
2018-06-15T20:52:27.235Z,8.70
2018-06-15T20:54:55.755Z,8.33
2018-06-15T20:57:23.916Z,7.70
2018-06-15T20:59:52.374Z,8.17
2018-06-15T21:02:20.808Z,8.57
2018-06-15T21:04:49.318Z,7.97
2018-06-15T21:07:17.957Z,8.60
2018-06-15T21:09:46.682Z,8.47
2018-06-15T21:12:15.587Z,8.70
2018-06-15T21:14:44.144Z,9.33
2018-06-15T21:17:13.022Z,14.83
2018-06-15T21:19:41.504Z,11.47
2018-06-15T21:22:09.967Z,9.60
2018-06-15T21:24:38.532Z,8.47
2018-06-15T21:27:07.096Z,8.53
2018-06-15T21:29:35.643Z,9.27
2018-06-15T21:32:04.299Z,8.77
2018-06-15T21:34:32.968Z,8.50
2018-06-15T21:37:01.733Z,9.53
2018-06-15T21:39:30.348Z,9.07
2018-06-15T21:41:59.056Z,9.43
2018-06-15T21:44:28.260Z,9.63
2018-06-15T21:46:56.711Z,8.77
2018-06-15T21:49:25.208Z,9.83
2018-06-15T21:51:53.928Z,9.53
2018-06-15T21:54:22.507Z,9.67
2018-06-15T21:56:51.109Z,9.07
2018-06-15T21:59:23.309Z,9.07
2018-06-15T22:01:51.868Z,8.70
2018-06-15T22:04:20.433Z,9.57
2018-06-15T22:06:48.986Z,10.07
2018-06-15T22:09:17.458Z,9.27
2018-06-15T22:11:45.925Z,9.00
2018-06-15T22:14:16.208Z,9.20
2018-06-15T22:16:49.360Z,10.00
2018-06-15T22:19:19.659Z,10.40
2018-06-15T22:21:49.667Z,9.73
2018-06-15T22:24:18.238Z,9.80
2018-06-15T22:26:46.788Z,9.63
2018-06-15T22:29:15.100Z,10.47
2018-06-15T22:31:43.536Z,9.80
2018-06-15T22:34:11.983Z,9.60
2018-06-15T22:36:40.968Z,10.73
2018-06-15T22:39:12.963Z,10.20
2018-06-15T22:41:42.040Z,10.27
2018-06-15T22:44:11.188Z,9.53
2018-06-15T22:46:40.220Z,10.03
2018-06-15T22:49:09.644Z,9.83
2018-06-15T22:51:38.426Z,10.50
2018-06-15T22:54:07.194Z,9.67
2018-06-15T22:56:35.812Z,10.53
2018-06-15T22:59:04.263Z,10.27
2018-06-15T23:01:32.852Z,10.03
2018-06-15T23:04:01.390Z,11.13
2018-06-15T23:06:29.816Z,10.50
2018-06-15T23:08:58.323Z,10.40
2018-06-15T23:11:26.795Z,10.03
2018-06-15T23:13:55.317Z,9.73
2018-06-15T23:16:23.804Z,9.97
2018-06-15T23:18:52.286Z,10.10
2018-06-15T23:21:20.724Z,9.03
2018-06-15T23:23:49.436Z,9.80
2018-06-15T23:26:18.090Z,9.80
2018-06-15T23:28:46.563Z,9.53
2018-06-15T23:31:15.062Z,9.93
2018-06-15T23:33:43.539Z,10.03
2018-06-15T23:36:12.106Z,9.80
2018-06-15T23:38:41.372Z,10.37
2018-06-15T23:41:09.881Z,9.30
2018-06-15T23:43:38.494Z,10.20
2018-06-15T23:46:06.947Z,9.13
2018-06-15T23:48:35.509Z,9.83
2018-06-15T23:51:05.058Z,9.70
2018-06-15T23:53:33.579Z,10.70
2018-06-15T23:56:02.106Z,9.40
2018-06-15T23:58:30.809Z,9.20
